Sns 147 — FGD5989 — position and weather

sailwx.info

Track history (hours):
 
Tides and Currents Weather Stations Pressure Air Temp Water Temp Dewpoint Dewpoint Depression Visibility Wind Speed Wind Dir Waves Ship Positions

Sns 147

Last reported at 2017-Sep-20 14:58 UTC. Time now 2017-Sep-21 10:37 UTC.
Position N 47°39' W 003°27'.

Length 15 m; draft 1.5 m.

Type: SAR. MMSI: 227574960.

Date/timePositionNaut miles runAvg speedWind from/ knotsBaromVisibWave heightAir tempDewpointWater temp
2017-Sep-20 14:58N 47°39' W 003°27'1 0.0
2017-Sep-19 11:50N 47°39' W 003°26'516.6
2017-Sep-19 11:30N 47°44' W 003°22'612.0
2017-Sep-19 11:00N 47°39' W 003°27'0 0.0
2017-Sep-18 16:55N 47°39' W 003°27'616.0
2017-Sep-18 16:30N 47°44' W 003°21'2 4.7
2017-Sep-18 16:00N 47°42' W 003°23'4 4.4
2017-Sep-18 15:05N 47°39' W 003°27'0 3.6
2017-Sep-18 15:01N 47°39' W 003°26'611.5
2017-Sep-18 14:30N 47°44' W 003°22'612.0
2017-Sep-18 14:00N 47°39' W 003°27'0 0.0
2017-Sep-18 09:10N 47°39' W 003°27'214.2
2017-Sep-18 09:00N 47°40' W 003°25'4 7.6
2017-Sep-18 08:30N 47°44' W 003°22'510.4
2017-Sep-18 08:00N 47°39' W 003°26'1 0.9
2017-Sep-18 07:03N 47°39' W 003°27'0 0.0
2017-Sep-18 07:00N 47°39' W 003°27'0 0.0
2017-Sep-18 05:31N 47°39' W 003°27'0 0.0
2017-Sep-18 05:30N 47°39' W 003°27'0 0.1
2017-Sep-18 05:00N 47°39' W 003°27'0 0.0
2017-Sep-16 13:32N 47°39' W 003°27'0 0.1
2017-Sep-16 13:31N 47°39' W 003°27'611.6
2017-Sep-16 13:00N 47°44' W 003°22'3 5.8
2017-Sep-16 12:30N 47°41' W 003°22'3 5.8
2017-Sep-16 12:00N 47°44' W 003°22'611.6
2017-Sep-16 11:31N 47°39' W 003°27'0 0.0
2017-Sep-15 22:19N 47°39' W 003°27'516.8
2017-Sep-15 22:01N 47°43' W 003°22'5 9.4
2017-Sep-15 21:31N 47°39' W 003°26'0 0.0
2017-Sep-14 14:48N 47°39' W 003°27'2 6.2
2017-Sep-14 14:30N 47°40' W 003°29'2 3.6
2017-Sep-14 14:00N 47°39' W 003°27'0 0.0
2017-Sep-13 17:14N 47°39' W 003°27'417.1
2017-Sep-13 17:01N 47°42' W 003°23'3 6.2
2017-Sep-13 16:30N 47°39' W 003°26'  
2017-Sep-11 08:02N 47°39' W 003°27'0 0.3
2017-Sep-11 08:01N 47°39' W 003°27'5 9.4
2017-Sep-11 07:31N 47°42' W 003°22'5 9.4
2017-Sep-11 07:00N 47°39' W 003°27'0 0.0
2017-Sep-10 16:29N 47°39' W 003°27'612.5
2017-Sep-10 16:00N 47°44' W 003°22'612.0
2017-Sep-10 15:31N 47°39' W 003°27'  
Track history (hours):
 
Tides and Currents Weather Stations Pressure Air Temp Water Temp Dewpoint Dewpoint Depression Visibility Wind Speed Wind Dir Waves Ship Positions

Sns 147

Last reported at 2017-Sep-20 14:58 UTC. Time now 2017-Sep-21 10:37 UTC.
Position N 47°39' W 003°27'.

Length 15 m; draft 1.5 m.

Type: SAR. MMSI: 227574960.

Date/timePositionNaut miles runAvg speedWind from/ knotsBaromVisibWave heightAir tempDewpointWater temp
2017-Sep-20 14:58N 47°39' W 003°27'1 0.0
2017-Sep-19 11:50N 47°39' W 003°26'516.6
2017-Sep-19 11:30N 47°44' W 003°22'612.0
2017-Sep-19 11:00N 47°39' W 003°27'0 0.0
2017-Sep-18 16:55N 47°39' W 003°27'616.0
2017-Sep-18 16:30N 47°44' W 003°21'2 4.7
2017-Sep-18 16:00N 47°42' W 003°23'4 4.4
2017-Sep-18 15:05N 47°39' W 003°27'0 3.6
2017-Sep-18 15:01N 47°39' W 003°26'611.5
2017-Sep-18 14:30N 47°44' W 003°22'612.0
2017-Sep-18 14:00N 47°39' W 003°27'0 0.0
2017-Sep-18 09:10N 47°39' W 003°27'214.2
2017-Sep-18 09:00N 47°40' W 003°25'4 7.6
2017-Sep-18 08:30N 47°44' W 003°22'510.4
2017-Sep-18 08:00N 47°39' W 003°26'1 0.9
2017-Sep-18 07:03N 47°39' W 003°27'0 0.0
2017-Sep-18 07:00N 47°39' W 003°27'0 0.0
2017-Sep-18 05:31N 47°39' W 003°27'0 0.0
2017-Sep-18 05:30N 47°39' W 003°27'0 0.1
2017-Sep-18 05:00N 47°39' W 003°27'0 0.0
2017-Sep-16 13:32N 47°39' W 003°27'0 0.1
2017-Sep-16 13:31N 47°39' W 003°27'611.6
2017-Sep-16 13:00N 47°44' W 003°22'3 5.8
2017-Sep-16 12:30N 47°41' W 003°22'3 5.8
2017-Sep-16 12:00N 47°44' W 003°22'611.6
2017-Sep-16 11:31N 47°39' W 003°27'0 0.0
2017-Sep-15 22:19N 47°39' W 003°27'516.8
2017-Sep-15 22:01N 47°43' W 003°22'5 9.4
2017-Sep-15 21:31N 47°39' W 003°26'0 0.0
2017-Sep-14 14:48N 47°39' W 003°27'2 6.2
2017-Sep-14 14:30N 47°40' W 003°29'2 3.6
2017-Sep-14 14:00N 47°39' W 003°27'0 0.0
2017-Sep-13 17:14N 47°39' W 003°27'417.1
2017-Sep-13 17:01N 47°42' W 003°23'3 6.2
2017-Sep-13 16:30N 47°39' W 003°26'  
2017-Sep-11 08:02N 47°39' W 003°27'0 0.3
2017-Sep-11 08:01N 47°39' W 003°27'5 9.4
2017-Sep-11 07:31N 47°42' W 003°22'5 9.4
2017-Sep-11 07:00N 47°39' W 003°27'0 0.0
2017-Sep-10 16:29N 47°39' W 003°27'612.5
2017-Sep-10 16:00N 47°44' W 003°22'612.0
2017-Sep-10 15:31N 47°39' W 003°27'  

Dump ship's entire track history